sensor_id;sensor_type;location;lat;lon;timestamp;pressure;altitude;pressure_sealevel;temperature
81657;BMP280;71067;51.482;-0.580;2024-02-15T00:00:47;101036.91;;;13.69
81657;BMP280;71067;51.482;-0.580;2024-02-15T00:03:19;101012.16;;;13.50
81657;BMP280;71067;51.482;-0.580;2024-02-15T00:05:46;100975.38;;;13.31
81657;BMP280;71067;51.482;-0.580;2024-02-15T00:08:15;100980.91;;;13.36
81657;BMP280;71067;51.482;-0.580;2024-02-15T00:10:40;101023.97;;;13.61
81657;BMP280;71067;51.482;-0.580;2024-02-15T00:13:09;101007.63;;;13.52
81657;BMP280;71067;51.482;-0.580;2024-02-15T00:15:38;101021.53;;;13.59
81657;BMP280;71067;51.482;-0.580;2024-02-15T00:18:06;101011.81;;;13.53
81657;BMP280;71067;51.482;-0.580;2024-02-15T00:20:32;100996.44;;;13.44
81657;BMP280;71067;51.482;-0.580;2024-02-15T00:23:00;101051.50;;;13.78
81657;BMP280;71067;51.482;-0.580;2024-02-15T00:25:26;101057.16;;;13.81
81657;BMP280;71067;51.482;-0.580;2024-02-15T00:27:51;101060.56;;;13.82
81657;BMP280;71067;51.482;-0.580;2024-02-15T00:30:17;101016.81;;;13.63
81657;BMP280;71067;51.482;-0.580;2024-02-15T00:32:43;101023.75;;;13.70
81657;BMP280;71067;51.482;-0.580;2024-02-15T00:35:10;101024.91;;;13.68
81657;BMP280;71067;51.482;-0.580;2024-02-15T00:37:35;101035.31;;;13.68
81657;BMP280;71067;51.482;-0.580;2024-02-15T00:40:01;101031.28;;;13.65
81657;BMP280;71067;51.482;-0.580;2024-02-15T00:45:55;101044.66;;;13.77
81657;BMP280;71067;51.482;-0.580;2024-02-15T00:48:20;101028.81;;;13.64
81657;BMP280;71067;51.482;-0.580;2024-02-15T00:50:46;101012.63;;;13.54
81657;BMP280;71067;51.482;-0.580;2024-02-15T00:53:11;101064.81;;;13.83
81657;BMP280;71067;51.482;-0.580;2024-02-15T00:55:36;101051.16;;;13.81
81657;BMP280;71067;51.482;-0.580;2024-02-15T00:58:11;100980.00;;;13.43
81657;BMP280;71067;51.482;-0.580;2024-02-15T01:00:36;100995.53;;;13.59
81657;BMP280;71067;51.482;-0.580;2024-02-15T01:03:06;101018.94;;;13.82
81657;BMP280;71067;51.482;-0.580;2024-02-15T01:05:34;101001.28;;;13.69
81657;BMP280;71067;51.482;-0.580;2024-02-15T01:08:00;100992.06;;;13.67
81657;BMP280;71067;51.482;-0.580;2024-02-15T01:10:25;101025.88;;;13.89
81657;BMP280;71067;51.482;-0.580;2024-02-15T01:12:52;100970.94;;;13.62
81657;BMP280;71067;51.482;-0.580;2024-02-15T01:15:17;100968.69;;;13.59
81657;BMP280;71067;51.482;-0.580;2024-02-15T01:17:45;101011.06;;;13.90
81657;BMP280;71067;51.482;-0.580;2024-02-15T01:20:11;100950.53;;;13.51
81657;BMP280;71067;51.482;-0.580;2024-02-15T01:22:39;101006.84;;;13.89
81657;BMP280;71067;51.482;-0.580;2024-02-15T01:25:06;100944.66;;;13.57
81657;BMP280;71067;51.482;-0.580;2024-02-15T01:27:32;100976.03;;;13.78
81657;BMP280;71067;51.482;-0.580;2024-02-15T01:29:59;100998.19;;;13.97
81657;BMP280;71067;51.482;-0.580;2024-02-15T01:32:24;100992.03;;;13.89
81657;BMP280;71067;51.482;-0.580;2024-02-15T01:34:53;101003.38;;;13.97
81657;BMP280;71067;51.482;-0.580;2024-02-15T01:37:20;100989.88;;;13.93
81657;BMP280;71067;51.482;-0.580;2024-02-15T01:39:46;100970.03;;;13.77
81657;BMP280;71067;51.482;-0.580;2024-02-15T01:42:12;101003.19;;;13.98
81657;BMP280;71067;51.482;-0.580;2024-02-15T01:44:39;101013.41;;;13.99
81657;BMP280;71067;51.482;-0.580;2024-02-15T01:47:05;100975.84;;;13.79
81657;BMP280;71067;51.482;-0.580;2024-02-15T01:49:31;101009.00;;;14.00
81657;BMP280;71067;51.482;-0.580;2024-02-15T01:51:58;100978.28;;;13.81
81657;BMP280;71067;51.482;-0.580;2024-02-15T01:54:26;101007.88;;;14.03
81657;BMP280;71067;51.482;-0.580;2024-02-15T01:56:52;100943.97;;;13.63
81657;BMP280;71067;51.482;-0.580;2024-02-15T01:59:19;100976.75;;;13.86
81657;BMP280;71067;51.482;-0.580;2024-02-15T02:01:45;100963.66;;;13.80
81657;BMP280;71067;51.482;-0.580;2024-02-15T02:04:10;100945.31;;;13.73
81657;BMP280;71067;51.482;-0.580;2024-02-15T02:06:37;100969.59;;;13.88
81657;BMP280;71067;51.482;-0.580;2024-02-15T02:09:06;100955.78;;;13.88
81657;BMP280;71067;51.482;-0.580;2024-02-15T02:11:35;100934.75;;;13.75
81657;BMP280;71067;51.482;-0.580;2024-02-15T02:14:03;100982.28;;;14.06
81657;BMP280;71067;51.482;-0.580;2024-02-15T02:16:30;100939.44;;;13.79
81657;BMP280;71067;51.482;-0.580;2024-02-15T02:19:01;100909.78;;;13.66
81657;BMP280;71067;51.482;-0.580;2024-02-15T02:21:53;100969.63;;;14.03
81657;BMP280;71067;51.482;-0.580;2024-02-15T02:27:11;100903.13;;;13.63
81657;BMP280;71067;51.482;-0.580;2024-02-15T02:29:46;100950.22;;;13.91
81657;BMP280;71067;51.482;-0.580;2024-02-15T02:32:14;100908.81;;;13.67
81657;BMP280;71067;51.482;-0.580;2024-02-15T02:34:53;100951.38;;;13.88
81657;BMP280;71067;51.482;-0.580;2024-02-15T02:37:45;100970.22;;;14.05
81657;BMP280;71067;51.482;-0.580;2024-02-15T02:40:33;100964.06;;;14.06
81657;BMP280;71067;51.482;-0.580;2024-02-15T02:43:57;100897.59;;;13.66
81657;BMP280;71067;51.482;-0.580;2024-02-15T02:46:31;100929.88;;;13.86
81657;BMP280;71067;51.482;-0.580;2024-02-15T02:48:59;100926.88;;;13.83
81657;BMP280;71067;51.482;-0.580;2024-02-15T02:51:35;100929.28;;;13.84
81657;BMP280;71067;51.482;-0.580;2024-02-15T02:54:00;100898.09;;;13.62
81657;BMP280;71067;51.482;-0.580;2024-02-15T02:56:32;100884.91;;;13.63
81657;BMP280;71067;51.482;-0.580;2024-02-15T02:58:58;100908.09;;;13.73
81657;BMP280;71067;51.482;-0.580;2024-02-15T03:01:24;100912.41;;;13.80
81657;BMP280;71067;51.482;-0.580;2024-02-15T03:03:52;100879.88;;;13.62
81657;BMP280;71067;51.482;-0.580;2024-02-15T03:06:23;100898.50;;;13.73
81657;BMP280;71067;51.482;-0.580;2024-02-15T03:08:50;100898.50;;;13.73
81657;BMP280;71067;51.482;-0.580;2024-02-15T03:11:21;100939.91;;;13.98
81657;BMP280;71067;51.482;-0.580;2024-02-15T03:13:48;100863.53;;;13.53
81657;BMP280;71067;51.482;-0.580;2024-02-15T03:16:13;100934.88;;;13.96
81657;BMP280;71067;51.482;-0.580;2024-02-15T03:18:39;100894.06;;;13.74
81657;BMP280;71067;51.482;-0.580;2024-02-15T03:21:06;100855.88;;;13.60
81657;BMP280;71067;51.482;-0.580;2024-02-15T03:23:33;100866.00;;;13.69
81657;BMP280;71067;51.482;-0.580;2024-02-15T03:26:01;100866.28;;;13.60
81657;BMP280;71067;51.482;-0.580;2024-02-15T03:28:26;100918.44;;;13.95
81657;BMP280;71067;51.482;-0.580;2024-02-15T03:30:51;100916.03;;;13.94
81657;BMP280;71067;51.482;-0.580;2024-02-15T03:33:20;100862.03;;;13.59
81657;BMP280;71067;51.482;-0.580;2024-02-15T03:35:54;100882.50;;;13.76
81657;BMP280;71067;51.482;-0.580;2024-02-15T03:38:22;100912.41;;;13.95
81657;BMP280;71067;51.482;-0.580;2024-02-15T03:40:48;100889.16;;;13.79
81657;BMP280;71067;51.482;-0.580;2024-02-15T03:43:14;100869.16;;;13.65
81657;BMP280;71067;51.482;-0.580;2024-02-15T03:45:42;100892.28;;;13.74
81657;BMP280;71067;51.482;-0.580;2024-02-15T03:48:10;100857.38;;;13.54
81657;BMP280;71067;51.482;-0.580;2024-02-15T03:50:35;100881.41;;;13.71
81657;BMP280;71067;51.482;-0.580;2024-02-15T03:53:01;100850.41;;;13.55
81657;BMP280;71067;51.482;-0.580;2024-02-15T03:55:49;100865.19;;;13.69
81657;BMP280;71067;51.482;-0.580;2024-02-15T03:58:28;100865.19;;;13.69
81657;BMP280;71067;51.482;-0.580;2024-02-15T04:00:55;100837.44;;;13.61
81657;BMP280;71067;51.482;-0.580;2024-02-15T04:03:22;100889.06;;;13.87
81657;BMP280;71067;51.482;-0.580;2024-02-15T04:05:47;100899.13;;;13.90
81657;BMP280;71067;51.482;-0.580;2024-02-15T04:08:14;100902.38;;;13.92
81657;BMP280;71067;51.482;-0.580;2024-02-15T04:10:40;100893.38;;;13.94
81657;BMP280;71067;51.482;-0.580;2024-02-15T04:13:06;100893.56;;;13.93
81657;BMP280;71067;51.482;-0.580;2024-02-15T04:15:32;100859.09;;;13.76
81657;BMP280;71067;51.482;-0.580;2024-02-15T04:17:59;100864.78;;;13.80
81657;BMP280;71067;51.482;-0.580;2024-02-15T04:20:25;100832.25;;;13.61
81657;BMP280;71067;51.482;-0.580;2024-02-15T04:22:51;100870.50;;;13.90
81657;BMP280;71067;51.482;-0.580;2024-02-15T04:25:16;100873.38;;;13.95
81657;BMP280;71067;51.482;-0.580;2024-02-15T04:27:44;100847.34;;;13.80
81657;BMP280;71067;51.482;-0.580;2024-02-15T04:30:14;100877.44;;;13.98
81657;BMP280;71067;51.482;-0.580;2024-02-15T04:32:40;100843.97;;;13.80
81657;BMP280;71067;51.482;-0.580;2024-02-15T04:35:06;100842.13;;;13.80
81657;BMP280;71067;51.482;-0.580;2024-02-15T04:37:32;100806.44;;;13.60
81657;BMP280;71067;51.482;-0.580;2024-02-15T04:40:00;100828.03;;;13.75
81657;BMP280;71067;51.482;-0.580;2024-02-15T04:42:33;100872.03;;;13.99
81657;BMP280;71067;51.482;-0.580;2024-02-15T04:44:59;100808.69;;;13.63
81657;BMP280;71067;51.482;-0.580;2024-02-15T04:47:25;100831.63;;;13.74
81657;BMP280;71067;51.482;-0.580;2024-02-15T04:49:50;100856.31;;;13.92
81657;BMP280;71067;51.482;-0.580;2024-02-15T04:52:15;100818.97;;;13.71
81657;BMP280;71067;51.482;-0.580;2024-02-15T04:54:42;100823.81;;;13.74
81657;BMP280;71067;51.482;-0.580;2024-02-15T04:57:08;100881.72;;;14.05
81657;BMP280;71067;51.482;-0.580;2024-02-15T04:59:33;100879.59;;;14.09
81657;BMP280;71067;51.482;-0.580;2024-02-15T05:01:59;100832.09;;;13.77
81657;BMP280;71067;51.482;-0.580;2024-02-15T05:04:24;100877.31;;;14.06
81657;BMP280;71067;51.482;-0.580;2024-02-15T05:06:50;100822.66;;;13.76
81657;BMP280;71067;51.482;-0.580;2024-02-15T05:09:16;100865.84;;;14.00
81657;BMP280;71067;51.482;-0.580;2024-02-15T05:11:43;100850.69;;;13.89
81657;BMP280;71067;51.482;-0.580;2024-02-15T05:14:13;100874.63;;;14.14
81657;BMP280;71067;51.482;-0.580;2024-02-15T05:16:47;100888.09;;;14.17
81657;BMP280;71067;51.482;-0.580;2024-02-15T05:19:16;100842.88;;;13.89
81657;BMP280;71067;51.482;-0.580;2024-02-15T05:21:42;100829.94;;;13.81
81657;BMP280;71067;51.482;-0.580;2024-02-15T05:24:14;100847.78;;;13.98
81657;BMP280;71067;51.482;-0.580;2024-02-15T05:26:43;100813.34;;;13.82
81657;BMP280;71067;51.482;-0.580;2024-02-15T05:29:10;100817.81;;;13.88
81657;BMP280;71067;51.482;-0.580;2024-02-15T05:31:36;100834.00;;;13.98
81657;BMP280;71067;51.482;-0.580;2024-02-15T05:34:04;100857.75;;;14.24
81657;BMP280;71067;51.482;-0.580;2024-02-15T05:36:29;100815.41;;;14.01
81657;BMP280;71067;51.482;-0.580;2024-02-15T05:38:55;100832.63;;;14.17
81657;BMP280;71067;51.482;-0.580;2024-02-15T05:41:20;100805.69;;;13.95
81657;BMP280;71067;51.482;-0.580;2024-02-15T05:43:49;100824.28;;;14.07
81657;BMP280;71067;51.482;-0.580;2024-02-15T05:46:17;100854.81;;;14.27
81657;BMP280;71067;51.482;-0.580;2024-02-15T05:48:42;100862.69;;;14.34
81657;BMP280;71067;51.482;-0.580;2024-02-15T05:51:08;100804.03;;;14.02
81657;BMP280;71067;51.482;-0.580;2024-02-15T05:53:40;100803.00;;;14.03
81657;BMP280;71067;51.482;-0.580;2024-02-15T05:56:07;100845.78;;;14.30
81657;BMP280;71067;51.482;-0.580;2024-02-15T05:58:34;100848.47;;;14.36
81657;BMP280;71067;51.482;-0.580;2024-02-15T06:01:00;100824.25;;;14.21
81657;BMP280;71067;51.482;-0.580;2024-02-15T06:03:28;100835.63;;;14.35
81657;BMP280;71067;51.482;-0.580;2024-02-15T06:05:56;100859.19;;;14.41
81657;BMP280;71067;51.482;-0.580;2024-02-15T06:08:26;100856.81;;;14.46
81657;BMP280;71067;51.482;-0.580;2024-02-15T06:10:52;100852.00;;;14.43
81657;BMP280;71067;51.482;-0.580;2024-02-15T06:13:21;100849.78;;;14.47
81657;BMP280;71067;51.482;-0.580;2024-02-15T06:15:47;100829.25;;;14.37
81657;BMP280;71067;51.482;-0.580;2024-02-15T06:18:20;100845.88;;;14.51
81657;BMP280;71067;51.482;-0.580;2024-02-15T06:20:53;100845.88;;;14.51
81657;BMP280;71067;51.482;-0.580;2024-02-15T06:23:19;100809.16;;;14.31
81657;BMP280;71067;51.482;-0.580;2024-02-15T06:25:50;100842.78;;;14.47
81657;BMP280;71067;51.482;-0.580;2024-02-15T06:28:16;100843.03;;;14.52
81657;BMP280;71067;51.482;-0.580;2024-02-15T06:31:08;100778.56;;;14.19
81657;BMP280;71067;51.482;-0.580;2024-02-15T06:33:52;100824.50;;;14.41
81657;BMP280;71067;51.482;-0.580;2024-02-15T06:36:49;100830.91;;;14.38
81657;BMP280;71067;51.482;-0.580;2024-02-15T06:39:34;100813.38;;;14.32
81657;BMP280;71067;51.482;-0.580;2024-02-15T06:42:15;100785.16;;;14.15
81657;BMP280;71067;51.482;-0.580;2024-02-15T06:44:47;100795.97;;;14.18
81657;BMP280;71067;51.482;-0.580;2024-02-15T06:47:13;100853.47;;;14.52
81657;BMP280;71067;51.482;-0.580;2024-02-15T06:49:39;100794.75;;;14.14
81657;BMP280;71067;51.482;-0.580;2024-02-15T06:52:06;100852.25;;;14.48
81657;BMP280;71067;51.482;-0.580;2024-02-15T06:54:33;100819.97;;;14.28
81657;BMP280;71067;51.482;-0.580;2024-02-15T06:56:58;100826.97;;;14.28
81657;BMP280;71067;51.482;-0.580;2024-02-15T06:59:26;100849.72;;;14.40
81657;BMP280;71067;51.482;-0.580;2024-02-15T07:01:52;100825.78;;;14.30
81657;BMP280;71067;51.482;-0.580;2024-02-15T07:04:18;100796.47;;;14.07
81657;BMP280;71067;51.482;-0.580;2024-02-15T07:06:44;100812.34;;;14.12
81657;BMP280;71067;51.482;-0.580;2024-02-15T07:09:48;100842.59;;;14.28
81657;BMP280;71067;51.482;-0.580;2024-02-15T07:12:33;100837.81;;;14.17
81657;BMP280;71067;51.482;-0.580;2024-02-15T07:14:59;100841.25;;;14.17
81657;BMP280;71067;51.482;-0.580;2024-02-15T07:17:27;100836.97;;;14.10
81657;BMP280;71067;51.482;-0.580;2024-02-15T07:19:53;100833.16;;;14.12
81657;BMP280;71067;51.482;-0.580;2024-02-15T07:22:18;100816.94;;;13.95
81657;BMP280;71067;51.482;-0.580;2024-02-15T07:24:44;100863.94;;;14.23
81657;BMP280;71067;51.482;-0.580;2024-02-15T07:27:09;100832.47;;;14.04
81657;BMP280;71067;51.482;-0.580;2024-02-15T07:29:37;100825.19;;;13.99
81657;BMP280;71067;51.482;-0.580;2024-02-15T07:32:04;100836.47;;;14.06
81657;BMP280;71067;51.482;-0.580;2024-02-15T07:34:30;100865.13;;;14.21
81657;BMP280;71067;51.482;-0.580;2024-02-15T07:36:56;100795.47;;;13.79
81657;BMP280;71067;51.482;-0.580;2024-02-15T07:39:23;100832.00;;;14.00
81657;BMP280;71067;51.482;-0.580;2024-02-15T07:41:50;100835.97;;;13.96
81657;BMP280;71067;51.482;-0.580;2024-02-15T07:44:16;100799.53;;;13.67
81657;BMP280;71067;51.482;-0.580;2024-02-15T07:46:42;100877.69;;;14.03
81657;BMP280;71067;51.482;-0.580;2024-02-15T07:49:08;100817.81;;;13.59
81657;BMP280;71067;51.482;-0.580;2024-02-15T07:51:33;100878.78;;;13.93
81657;BMP280;71067;51.482;-0.580;2024-02-15T07:53:59;100843.66;;;13.75
81657;BMP280;71067;51.482;-0.580;2024-02-15T07:56:24;100812.34;;;13.54
81657;BMP280;71067;51.482;-0.580;2024-02-15T07:58:50;100870.50;;;13.90
81657;BMP280;71067;51.482;-0.580;2024-02-15T08:01:20;100810.06;;;13.51
81657;BMP280;71067;51.482;-0.580;2024-02-15T08:03:46;100797.50;;;13.40
81657;BMP280;71067;51.482;-0.580;2024-02-15T08:06:16;100800.78;;;13.42
81657;BMP280;71067;51.482;-0.580;2024-02-15T08:08:46;100819.06;;;13.48
81657;BMP280;71067;51.482;-0.580;2024-02-15T08:11:12;100788.16;;;13.31
81657;BMP280;71067;51.482;-0.580;2024-02-15T08:13:46;100804.13;;;13.28
81657;BMP280;71067;51.482;-0.580;2024-02-15T08:16:22;100833.03;;;13.47
81657;BMP280;71067;51.482;-0.580;2024-02-15T08:18:48;100822.81;;;13.46
81657;BMP280;71067;51.482;-0.580;2024-02-15T08:21:24;100821.09;;;13.38
81657;BMP280;71067;51.482;-0.580;2024-02-15T08:23:50;100824.31;;;13.40
81657;BMP280;71067;51.482;-0.580;2024-02-15T08:26:15;100826.09;;;13.40
81657;BMP280;71067;51.482;-0.580;2024-02-15T08:28:42;100855.19;;;13.58
81657;BMP280;71067;51.482;-0.580;2024-02-15T08:31:08;100811.38;;;13.32
81657;BMP280;71067;51.482;-0.580;2024-02-15T08:33:35;100821.56;;;13.42
81657;BMP280;71067;51.482;-0.580;2024-02-15T08:36:01;100823.44;;;13.48
81657;BMP280;71067;51.482;-0.580;2024-02-15T08:38:27;100793.03;;;13.34
81657;BMP280;71067;51.482;-0.580;2024-02-15T08:40:52;100797.09;;;13.36
81657;BMP280;71067;51.482;-0.580;2024-02-15T08:43:18;100817.63;;;13.46
81657;BMP280;71067;51.482;-0.580;2024-02-15T08:45:44;100804.34;;;13.41
81657;BMP280;71067;51.482;-0.580;2024-02-15T08:48:10;100811.72;;;13.52
81657;BMP280;71067;51.482;-0.580;2024-02-15T08:50:35;100821.56;;;13.56
81657;BMP280;71067;51.482;-0.580;2024-02-15T08:53:01;100818.44;;;13.61
81657;BMP280;71067;51.482;-0.580;2024-02-15T08:55:31;100812.59;;;13.59
81657;BMP280;71067;51.482;-0.580;2024-02-15T08:57:56;100794.31;;;13.52
81657;BMP280;71067;51.482;-0.580;2024-02-15T09:00:22;100805.13;;;13.56
81657;BMP280;71067;51.482;-0.580;2024-02-15T09:02:49;100795.75;;;13.55
81657;BMP280;71067;51.482;-0.580;2024-02-15T09:05:20;100807.03;;;13.62
81657;BMP280;71067;51.482;-0.580;2024-02-15T09:07:47;100779.22;;;13.48
81657;BMP280;71067;51.482;-0.580;2024-02-15T09:10:14;100781.56;;;13.57
81657;BMP280;71067;51.482;-0.580;2024-02-15T09:12:41;100765.53;;;13.54
81657;BMP280;71067;51.482;-0.580;2024-02-15T09:15:08;100799.97;;;13.70
81657;BMP280;71067;51.482;-0.580;2024-02-15T09:17:37;100791.34;;;13.70
81657;BMP280;71067;51.482;-0.580;2024-02-15T09:20:13;100788.13;;;13.68
81657;BMP280;71067;51.482;-0.580;2024-02-15T09:22:51;100763.25;;;13.51
81657;BMP280;71067;51.482;-0.580;2024-02-15T09:25:20;100796.81;;;13.75
81657;BMP280;71067;51.482;-0.580;2024-02-15T09:27:45;100765.16;;;13.57
81657;BMP280;71067;51.482;-0.580;2024-02-15T09:30:11;100779.53;;;13.67
81657;BMP280;71067;51.482;-0.580;2024-02-15T09:32:38;100789.19;;;13.73
81657;BMP280;71067;51.482;-0.580;2024-02-15T09:35:11;100737.25;;;13.51
81657;BMP280;71067;51.482;-0.580;2024-02-15T09:37:46;100757.28;;;13.65
81657;BMP280;71067;51.482;-0.580;2024-02-15T09:40:14;100763.38;;;13.72
81657;BMP280;71067;51.482;-0.580;2024-02-15T09:42:41;100735.38;;;13.59
81657;BMP280;71067;51.482;-0.580;2024-02-15T09:45:07;100730.25;;;13.66
81657;BMP280;71067;51.482;-0.580;2024-02-15T09:47:39;100773.84;;;13.93
81657;BMP280;71067;51.482;-0.580;2024-02-15T09:50:11;100752.06;;;13.79
81657;BMP280;71067;51.482;-0.580;2024-02-15T09:52:43;100729.47;;;13.65
81657;BMP280;71067;51.482;-0.580;2024-02-15T09:55:12;100732.41;;;13.77
81657;BMP280;71067;51.482;-0.580;2024-02-15T09:57:44;100744.34;;;13.86
81657;BMP280;71067;51.482;-0.580;2024-02-15T10:00:19;100777.88;;;14.10
81657;BMP280;71067;51.482;-0.580;2024-02-15T10:02:52;100713.75;;;13.73
81657;BMP280;71067;51.482;-0.580;2024-02-15T10:05:24;100741.44;;;13.95
81657;BMP280;71067;51.482;-0.580;2024-02-15T10:07:50;100717.03;;;13.82
81657;BMP280;71067;51.482;-0.580;2024-02-15T10:12:53;100761.63;;;14.08
81657;BMP280;71067;51.482;-0.580;2024-02-15T10:15:32;100747.00;;;14.07
81657;BMP280;71067;51.482;-0.580;2024-02-15T10:17:59;100739.56;;;14.04
81657;BMP280;71067;51.482;-0.580;2024-02-15T10:20:25;100695.25;;;13.83
81657;BMP280;71067;51.482;-0.580;2024-02-15T10:23:11;100694.69;;;13.87
81657;BMP280;71067;51.482;-0.580;2024-02-15T10:25:39;100699.16;;;13.93
81657;BMP280;71067;51.482;-0.580;2024-02-15T10:28:05;100722.09;;;14.19
81657;BMP280;71067;51.482;-0.580;2024-02-15T10:30:45;100697.09;;;14.04
81657;BMP280;71067;51.482;-0.580;2024-02-15T10:33:26;100759.91;;;14.36
81657;BMP280;71067;51.482;-0.580;2024-02-15T10:36:10;100742.69;;;14.35
81657;BMP280;71067;51.482;-0.580;2024-02-15T10:38:37;100749.81;;;14.48
81657;BMP280;71067;51.482;-0.580;2024-02-15T10:41:03;100733.13;;;14.42
81657;BMP280;71067;51.482;-0.580;2024-02-15T10:43:33;100743.06;;;14.53
81657;BMP280;71067;51.482;-0.580;2024-02-15T10:46:00;100736.22;;;14.52
81657;BMP280;71067;51.482;-0.580;2024-02-15T10:48:28;100673.59;;;14.18
81657;BMP280;71067;51.482;-0.580;2024-02-15T10:50:56;100716.78;;;14.48
81657;BMP280;71067;51.482;-0.580;2024-02-15T10:53:27;100674.47;;;14.25
81657;BMP280;71067;51.482;-0.580;2024-02-15T10:55:58;100733.38;;;14.68
81657;BMP280;71067;51.482;-0.580;2024-02-15T10:58:26;100667.72;;;14.31
81657;BMP280;71067;51.482;-0.580;2024-02-15T11:00:59;100675.19;;;14.40
81657;BMP280;71067;51.482;-0.580;2024-02-15T11:03:35;100657.34;;;14.37
81657;BMP280;71067;51.482;-0.580;2024-02-15T11:06:02;100677.75;;;14.55
81657;BMP280;71067;51.482;-0.580;2024-02-15T11:08:30;100696.28;;;14.66
81657;BMP280;71067;51.482;-0.580;2024-02-15T11:11:03;100696.28;;;14.66
81657;BMP280;71067;51.482;-0.580;2024-02-15T11:13:32;100673.22;;;14.63
81657;BMP280;71067;51.482;-0.580;2024-02-15T11:16:05;100652.69;;;14.54
81657;BMP280;71067;51.482;-0.580;2024-02-15T11:18:46;100697.47;;;14.91
81657;BMP280;71067;51.482;-0.580;2024-02-15T11:21:16;100693.28;;;14.90
81657;BMP280;71067;51.482;-0.580;2024-02-15T11:23:42;100649.81;;;14.70
81657;BMP280;71067;51.482;-0.580;2024-02-15T11:26:14;100671.72;;;14.82
81657;BMP280;71067;51.482;-0.580;2024-02-15T11:28:55;100629.69;;;14.64
81657;BMP280;71067;51.482;-0.580;2024-02-15T11:32:13;100629.69;;;14.64
81657;BMP280;71067;51.482;-0.580;2024-02-15T11:34:42;100600.25;;;14.63
81657;BMP280;71067;51.482;-0.580;2024-02-15T11:43:07;100637.13;;;14.94
81657;BMP280;71067;51.482;-0.580;2024-02-15T11:45:34;100610.59;;;14.84
81657;BMP280;71067;51.482;-0.580;2024-02-15T11:48:10;100642.63;;;15.06
81657;BMP280;71067;51.482;-0.580;2024-02-15T11:50:39;100612.69;;;14.95
81657;BMP280;71067;51.482;-0.580;2024-02-15T11:53:08;100596.84;;;14.97
81657;BMP280;71067;51.482;-0.580;2024-02-15T11:55:38;100610.31;;;15.07
81657;BMP280;71067;51.482;-0.580;2024-02-15T11:58:07;100647.00;;;15.40
81657;BMP280;71067;51.482;-0.580;2024-02-15T12:00:33;100648.84;;;15.46
81657;BMP280;71067;51.482;-0.580;2024-02-15T12:03:27;100647.63;;;15.55
81657;BMP280;71067;51.482;-0.580;2024-02-15T12:06:11;100579.69;;;15.22
81657;BMP280;71067;51.482;-0.580;2024-02-15T12:08:55;100581.94;;;15.32
81657;BMP280;71067;51.482;-0.580;2024-02-15T12:11:40;100623.59;;;15.66
81657;BMP280;71067;51.482;-0.580;2024-02-15T12:14:25;100620.38;;;15.70
81657;BMP280;71067;51.482;-0.580;2024-02-15T12:17:13;100588.38;;;15.49
81657;BMP280;71067;51.482;-0.580;2024-02-15T12:20:01;100590.47;;;15.53
81657;BMP280;71067;51.482;-0.580;2024-02-15T12:22:51;100600.09;;;15.72
81657;BMP280;71067;51.482;-0.580;2024-02-15T12:25:21;100632.47;;;15.97
81657;BMP280;71067;51.482;-0.580;2024-02-15T12:27:54;100597.31;;;15.80
81657;BMP280;71067;51.482;-0.580;2024-02-15T12:30:23;100587.66;;;15.81
81657;BMP280;71067;51.482;-0.580;2024-02-15T12:32:51;100589.09;;;15.83
81657;BMP280;71067;51.482;-0.580;2024-02-15T12:35:26;100588.28;;;15.89
81657;BMP280;71067;51.482;-0.580;2024-02-15T12:38:03;100608.78;;;15.99
81657;BMP280;71067;51.482;-0.580;2024-02-15T12:40:38;100583.88;;;15.96
81657;BMP280;71067;51.482;-0.580;2024-02-15T12:43:08;100559.75;;;15.81
81657;BMP280;71067;51.482;-0.580;2024-02-15T12:45:43;100564.34;;;15.86
81657;BMP280;71067;51.482;-0.580;2024-02-15T12:48:09;100565.19;;;15.86
81657;BMP280;71067;51.482;-0.580;2024-02-15T12:50:36;100619.22;;;16.25
81657;BMP280;71067;51.482;-0.580;2024-02-15T12:53:04;100547.34;;;15.90
81657;BMP280;71067;51.482;-0.580;2024-02-15T12:55:38;100587.47;;;16.22
81657;BMP280;71067;51.482;-0.580;2024-02-15T12:58:06;100593.88;;;16.39
81657;BMP280;71067;51.482;-0.580;2024-02-15T13:00:35;100598.50;;;16.50
81657;BMP280;71067;51.482;-0.580;2024-02-15T13:03:04;100590.66;;;16.56
81657;BMP280;71067;51.482;-0.580;2024-02-15T13:05:30;100582.81;;;16.56
81657;BMP280;71067;51.482;-0.580;2024-02-15T13:07:59;100565.75;;;16.47
81657;BMP280;71067;51.482;-0.580;2024-02-15T13:10:27;100550.28;;;16.39
81657;BMP280;71067;51.482;-0.580;2024-02-15T13:13:06;100561.72;;;16.51
81657;BMP280;71067;51.482;-0.580;2024-02-15T13:15:36;100557.69;;;16.55
81657;BMP280;71067;51.482;-0.580;2024-02-15T13:18:08;100567.91;;;16.63
81657;BMP280;71067;51.482;-0.580;2024-02-15T13:20:38;100587.38;;;16.80
81657;BMP280;71067;51.482;-0.580;2024-02-15T13:23:07;100580.94;;;16.83
81657;BMP280;71067;51.482;-0.580;2024-02-15T13:25:42;100536.97;;;16.60
81657;BMP280;71067;51.482;-0.580;2024-02-15T13:28:09;100557.03;;;16.73
81657;BMP280;71067;51.482;-0.580;2024-02-15T13:30:36;100575.69;;;16.89
81657;BMP280;71067;51.482;-0.580;2024-02-15T13:33:02;100550.00;;;16.73
81657;BMP280;71067;51.482;-0.580;2024-02-15T13:35:27;100536.75;;;16.68
81657;BMP280;71067;51.482;-0.580;2024-02-15T13:37:56;100514.22;;;16.61
81657;BMP280;71067;51.482;-0.580;2024-02-15T13:40:28;100508.63;;;16.57
81657;BMP280;71067;51.482;-0.580;2024-02-15T13:43:00;100497.56;;;16.55
81657;BMP280;71067;51.482;-0.580;2024-02-15T13:45:40;100544.28;;;16.89
81657;BMP280;71067;51.482;-0.580;2024-02-15T13:48:06;100528.22;;;16.86
81657;BMP280;71067;51.482;-0.580;2024-02-15T13:50:41;100499.44;;;16.79
81657;BMP280;71067;51.482;-0.580;2024-02-15T13:53:06;100531.59;;;16.99
81657;BMP280;71067;51.482;-0.580;2024-02-15T13:55:34;100505.22;;;16.94
81657;BMP280;71067;51.482;-0.580;2024-02-15T13:58:03;100503.22;;;16.90
81657;BMP280;71067;51.482;-0.580;2024-02-15T14:00:31;100479.34;;;16.80
81657;BMP280;71067;51.482;-0.580;2024-02-15T14:03:02;100486.97;;;16.88
81657;BMP280;71067;51.482;-0.580;2024-02-15T14:05:29;100470.28;;;16.82
81657;BMP280;71067;51.482;-0.580;2024-02-15T14:07:56;100523.66;;;17.12
81657;BMP280;71067;51.482;-0.580;2024-02-15T14:10:23;100485.66;;;17.03
81657;BMP280;71067;51.482;-0.580;2024-02-15T14:12:51;100503.50;;;17.13